^^
Station Historical Data
Daily Summary for January 17, 2017 Units:  English    Metric   Both
« Previous Day
Next Day »
Daily Weekly Monthly Yearly Custom
  High: Low: Average:
Temperature: 37.9 °F 34.9 °F 36.3 °F
Dew Point: 34.9 °F 26.7 °F 31.6 °F
Humidity: 96% 64% 84%
Wind Speed: 3.0mph 0.0mph 0.5mph
Wind Gust: 9.0mph - -
Wind- - SSE
Pressure: 30.30 in 30.00 in -
Precipitation: 0.44 in    
Historical Graphs
 
 
Tabular Data for January 17, 2017
Time Temperature Dew Point Pressure Wind Wind Speed Wind Gust Humidity Rainfall Rate (Hourly) Conditions
00:00 37.9 °F 26.8 °F 30.30 in SSW 2.0 mph 6.0 mph 64% 0.00 in RA
00:10 37.9 °F 26.8 °F 30.30 in SSW 2.0 mph 9.0 mph 64% 0.00 in BKN
00:20 37.9 °F 26.8 °F 30.29 in SW 3.0 mph 9.0 mph 64% 0.00 in BKN
00:30 37.9 °F 26.8 °F 30.29 in SSW 2.0 mph 8.0 mph 64% 0.00 in BKN
00:40 37.8 °F 26.7 °F 30.28 in SSW 3.0 mph 8.0 mph 64% 0.00 in BKN
00:50 37.7 °F 27.0 °F 30.29 in SW 1.0 mph 6.0 mph 65% 0.00 in BKN
01:00 37.7 °F 27.4 °F 30.29 in SW 1.0 mph 7.0 mph 66% 0.00 in BKN
01:10 37.5 °F 27.2 °F 30.28 in SSW 3.0 mph 6.0 mph 66% 0.00 in BKN
01:20 37.5 °F 27.5 °F 30.29 in South 1.0 mph 7.0 mph 67% 0.00 in BKN
01:30 37.3 °F 27.3 °F 30.29 in SW 1.0 mph 5.0 mph 67% 0.00 in BKN
01:40 37.2 °F 27.6 °F 30.28 in Calm   5.0 mph 68% 0.00 in BKN
01:50 37.1 °F 27.5 °F 30.28 in WSW 1.0 mph 6.0 mph 68% 0.00 in BKN
02:00 37.0 °F 27.4 °F 30.28 in Calm   2.0 mph 68% 0.00 in BKN
02:10 36.9 °F 27.3 °F 30.27 in South 1.0 mph 3.0 mph 68% 0.00 in BKN
02:20 36.5 °F 27.3 °F 30.27 in Calm   5.0 mph 69% 0.00 in BKN
02:30 36.5 °F 27.3 °F 30.26 in SSW 1.0 mph 3.0 mph 69% 0.00 in BKN
02:40 36.3 °F 27.4 °F 30.26 in SW 1.0 mph 4.0 mph 70% 0.00 in BKN
02:50 36.2 °F 27.4 °F 30.26 in SW 1.0 mph 4.0 mph 70% 0.00 in BKN
03:00 36.3 °F 27.4 °F 30.26 in Calm   3.0 mph 70% 0.00 in BKN
03:10 36.2 °F 27.3 °F 30.26 in Calm   4.0 mph 70% 0.00 in BKN
03:20 36.0 °F 27.5 °F 30.26 in SW 1.0 mph 4.0 mph 71% 0.00 in BKN
03:30 36.2 °F 27.7 °F 30.25 in SSW 1.0 mph 7.0 mph 71% 0.00 in BKN
03:40 36.3 °F 27.8 °F 30.25 in SW 2.0 mph 7.0 mph 71% 0.00 in BKN
03:50 36.4 °F 27.9 °F 30.25 in SSW 2.0 mph 8.0 mph 71% 0.00 in BKN
04:00 36.5 °F 28.0 °F 30.25 in SW 1.0 mph 5.0 mph 71% 0.00 in BKN
04:10 36.5 °F 28.3 °F 30.25 in SW 1.0 mph 5.0 mph 72% 0.00 in SCT
04:20 36.5 °F 28.0 °F 30.25 in WSW 1.0 mph 7.0 mph 71% 0.00 in SCT
04:30 36.5 °F 28.0 °F 30.25 in WSW 2.0 mph 6.0 mph 71% 0.00 in SCT
04:40 36.5 °F 28.0 °F 30.25 in WSW 2.0 mph 5.0 mph 71% 0.00 in SCT
04:50 36.5 °F 28.0 °F 30.24 in SW 2.0 mph 4.0 mph 71% 0.00 in SCT
05:00 36.4 °F 28.2 °F 30.24 in Calm   3.0 mph 72% 0.00 in SCT
05:10 36.3 °F 28.1 °F 30.23 in Calm   2.0 mph 72% 0.00 in BKN
05:20 36.3 °F 28.1 °F 30.24 in Calm   2.0 mph 72% 0.00 in BKN
05:30 36.2 °F 28.0 °F 30.24 in Calm   2.0 mph 72% 0.00 in BKN
05:40 36.2 °F 28.0 °F 30.24 in Calm   3.0 mph 72% 0.00 in BKN
05:50 36.1 °F 27.9 °F 30.24 in Calm   1.0 mph 72% 0.00 in BKN
06:00 36.0 °F 28.2 °F 30.24 in Calm   1.0 mph 73% 0.00 in BKN
06:10 36.0 °F 28.2 °F 30.23 in Calm   2.0 mph 73% 0.00 in OVC
06:20 36.0 °F 28.5 °F 30.24 in Calm   2.0 mph 74% 0.00 in OVC
06:30 36.1 °F 28.3 °F 30.24 in SW 1.0 mph 2.0 mph 73% 0.00 in OVC
06:40 36.1 °F 28.3 °F 30.24 in SSW 1.0 mph 2.0 mph 73% 0.00 in OVC
06:50 36.1 °F 28.6 °F 30.24 in SSW 1.0 mph 2.0 mph 74% 0.00 in OVC
07:00 36.1 °F 28.6 °F 30.24 in Calm   2.0 mph 74% 0.00 in OVC
07:10 35.8 °F 28.3 °F 30.24 in Calm   1.0 mph 74% 0.00 in BKN
07:20 35.1 °F 28.0 °F 30.24 in Calm     75% 0.00 in BKN
07:30 34.9 °F 28.5 °F 30.24 in Calm     77% 0.00 in BKN
07:40 35.5 °F 28.7 °F 30.24 in Calm     76% 0.00 in BKN
07:50 36.0 °F 29.5 °F 30.24 in Calm     77% 0.00 in BKN
08:00 36.3 °F 29.1 °F 30.24 in Calm   1.0 mph 75% 0.00 in BKN
08:10 36.4 °F 29.2 °F 30.25 in Calm     75% 0.00 in BKN
08:20 36.8 °F 29.6 °F 30.24 in Calm   1.0 mph 75% 0.00 in BKN
08:30 36.8 °F 29.3 °F 30.24 in Calm   1.0 mph 74% 0.00 in BKN
08:40 37.0 °F 29.5 °F 30.24 in Calm     74% 0.00 in BKN
08:50 37.3 °F 29.4 °F 30.25 in Calm   1.0 mph 73% 0.00 in BKN
09:00 37.5 °F 29.6 °F 30.25 in Calm   1.0 mph 73% 0.00 in BKN
09:10 37.6 °F 29.7 °F 30.25 in Calm   2.0 mph 73% 0.00 in BKN
09:20 37.4 °F 30.5 °F 30.25 in SW 1.0 mph 2.0 mph 76% 0.00 in BKN
09:30 36.5 °F 30.6 °F 30.25 in Calm   2.0 mph 79% 0.00 in BKN
09:40 36.5 °F 31.2 °F 30.25 in Calm     81% 0.00 in BKN
09:50 36.6 °F 31.6 °F 30.26 in Calm   1.0 mph 82% 0.00 in BKN
10:00 36.6 °F 31.3 °F 30.25 in Calm   1.0 mph 81% 0.00 in BKN
10:10 36.9 °F 31.3 °F 30.25 in Calm     80% 0.00 in -RA
10:20 37.3 °F 31.4 °F 30.25 in Calm     79% 0.00 in -RA
10:30 37.6 °F 31.6 °F 30.24 in Calm     79% 0.00 in -RA
10:40 37.7 °F 32.7 °F 30.24 in Calm     82% 0.01 in -RA
10:50 37.1 °F 33.0 °F 30.23 in Calm   1.0 mph 85% 0.00 in -RA
11:00 36.8 °F 33.0 °F 30.22 in Calm     86% 0.00 in -RA
11:10 36.9 °F 33.4 °F 30.22 in Calm     87% 0.00 in -RA
11:20 37.1 °F 33.9 °F 30.22 in Calm     88% 0.01 in -RA
11:30 37.1 °F 33.9 °F 30.21 in Calm     88% 0.01 in -RA
11:40 37.4 °F 34.2 °F 30.21 in Calm     88% 0.00 in -RA
11:50 37.2 °F 34.0 °F 30.20 in Calm   1.0 mph 88% 0.01 in -RA
12:00 37.1 °F 34.2 °F 30.20 in Calm   1.0 mph 89% 0.00 in -RA
12:10 37.1 °F 34.2 °F 30.20 in Calm   1.0 mph 89% 0.00 in -RA
12:20 37.0 °F 34.0 °F 30.19 in Calm   1.0 mph 89% 0.02 in -RA
12:30 36.7 °F 34.1 °F 30.18 in Calm   1.0 mph 90% 0.00 in -RA
12:40 36.7 °F 34.0 °F 30.18 in Calm   1.0 mph 90% 0.01 in -RA
12:50 36.7 °F 34.3 °F 30.18 in Calm   1.0 mph 91% 0.00 in -RA
13:00 36.7 °F 34.3 °F 30.17 in Calm   1.0 mph 91% 0.01 in -RA
13:10 36.5 °F 34.1 °F 30.16 in Calm   1.0 mph 91% 0.01 in -RA
13:20 36.4 °F 34.0 °F 30.16 in Calm   1.0 mph 91% 0.00 in -RA
13:30 36.4 °F 34.3 °F 30.15 in Calm   1.0 mph 92% 0.01 in -RA
13:40 36.4 °F 34.3 °F 30.15 in Calm   1.0 mph 92% 0.00 in -RA
13:50 36.3 °F 34.2 °F 30.15 in Calm   1.0 mph 92% 0.00 in -RA
14:00 36.4 °F 34.3 °F 30.15 in Calm     92% 0.00 in -RA
14:10 36.4 °F 34.3 °F 30.14 in Calm     92% 0.01 in -RA
14:20 36.3 °F 34.2 °F 30.14 in Calm   1.0 mph 92% 0.00 in -RA
14:30 36.4 °F 34.6 °F 30.14 in Calm   2.0 mph 93% 0.00 in -RA
14:40 36.4 °F 34.6 °F 30.14 in Calm   1.0 mph 93% 0.00 in -RA
14:50 36.2 °F 34.4 °F 30.14 in Calm   3.0 mph 93% 0.00 in -RA
15:00 35.9 °F 33.8 °F 30.14 in Calm   5.0 mph 92% 0.00 in -RA
15:10 35.8 °F 34.0 °F 30.12 in NNE 1.0 mph 4.0 mph 93% 0.00 in -RA
15:20 35.9 °F 34.1 °F 30.12 in NNE 1.0 mph 3.0 mph 93% 0.01 in -RA
15:30 35.7 °F 33.9 °F 30.11 in Calm   3.0 mph 93% 0.00 in -RA
15:40 35.5 °F 33.6 °F 30.11 in NNE 1.0 mph 5.0 mph 93% 0.00 in -RA
15:50 35.3 °F 33.5 °F 30.12 in Calm   4.0 mph 93% 0.00 in -RA
16:00 35.1 °F 33.3 °F 30.12 in Calm   5.0 mph 93% 0.00 in -RA
16:10 35.1 °F 33.3 °F 30.12 in Calm   4.0 mph 93% 0.00 in -RA
16:20 35.1 °F 33.5 °F 30.12 in Calm   6.0 mph 94% 0.00 in -RA
16:30 35.0 °F 33.4 °F 30.12 in North 1.0 mph 4.0 mph 94% 0.00 in -RA
16:40 35.1 °F 33.5 °F 30.12 in Calm   2.0 mph 94% 0.00 in -RA
16:50 35.1 °F 33.5 °F 30.11 in North 1.0 mph 4.0 mph 94% 0.00 in -RA
17:00 35.1 °F 33.6 °F 30.12 in North 1.0 mph 3.0 mph 94% 0.00 in -RA
17:10 35.2 °F 33.6 °F 30.12 in Calm   4.0 mph 94% 0.00 in OVC
17:20 35.2 °F 33.6 °F 30.12 in Calm   4.0 mph 94% 0.00 in OVC
17:30 35.2 °F 33.6 °F 30.12 in Calm   6.0 mph 94% 0.00 in OVC
17:40 35.3 °F 33.7 °F 30.12 in Calm   3.0 mph 94% 0.00 in OVC
17:50 35.3 °F 33.7 °F 30.11 in NNE 1.0 mph 4.0 mph 94% 0.03 in RA
18:00 35.2 °F 33.6 °F 30.10 in Calm   8.0 mph 94% 0.03 in RA
18:10 35.2 °F 33.6 °F 30.09 in NE 1.0 mph 7.0 mph 94% 0.00 in -RA
18:20 35.3 °F 34.0 °F 30.10 in NNE 2.0 mph 6.0 mph 95% 0.00 in -RA
18:30 35.4 °F 34.1 °F 30.09 in NNE 1.0 mph 9.0 mph 95% 0.00 in -RA
18:40 35.6 °F 34.3 °F 30.09 in NE 1.0 mph 8.0 mph 95% 0.00 in -RA
18:50 35.7 °F 34.4 °F 30.08 in North 2.0 mph 5.0 mph 95% 0.01 in -RA
19:00 35.8 °F 34.5 °F 30.09 in North 1.0 mph 5.0 mph 95% 0.01 in -RA
19:10 35.9 °F 34.6 °F 30.08 in North 2.0 mph 6.0 mph 95% 0.04 in -RA
19:20 36.0 °F 34.7 °F 30.07 in Calm   4.0 mph 95% 0.04 in -RA
19:30 35.9 °F 34.6 °F 30.07 in Calm   5.0 mph 95% 0.01 in -RA
19:40 35.8 °F 34.6 °F 30.06 in NE 2.0 mph 4.0 mph 95% 0.00 in -RA
19:50 35.7 °F 34.4 °F 30.06 in NE 1.0 mph 9.0 mph 95% 0.00 in -RA
20:00 35.7 °F 34.4 °F 30.06 in ENE 1.0 mph 7.0 mph 95% 0.00 in -RA
20:10 35.7 °F 34.4 °F 30.06 in NE 2.0 mph 6.0 mph 95% 0.00 in -RA
20:20 35.7 °F 34.4 °F 30.06 in NNE 1.0 mph 7.0 mph 95% 0.01 in -RA
20:30 35.7 °F 34.4 °F 30.06 in NNE 1.0 mph 4.0 mph 95% 0.02 in -RA
20:40 35.7 °F 34.4 °F 30.06 in NNE 1.0 mph 6.0 mph 95% 0.03 in -RA
20:50 35.7 °F 34.4 °F 30.05 in ENE 2.0 mph 9.0 mph 95% 0.02 in -RA
21:00 35.7 °F 34.4 °F 30.05 in ENE 1.0 mph 5.0 mph 95% 0.02 in -RA
21:10 35.7 °F 34.4 °F 30.05 in Calm   7.0 mph 95% 0.01 in RA
21:20 35.8 °F 34.5 °F 30.05 in NNE 1.0 mph 3.0 mph 95% 0.00 in OVC
21:30 35.8 °F 34.5 °F 30.05 in Calm   4.0 mph 95% 0.00 in OVC
21:40 35.8 °F 34.5 °F 30.05 in North 1.0 mph 4.0 mph 95% 0.00 in OVC
21:50 35.9 °F 34.8 °F 30.04 in Calm   4.0 mph 96% 0.00 in OVC
22:00 35.9 °F 34.9 °F 30.03 in Calm   3.0 mph 96% 0.00 in OVC
22:10 35.9 °F 34.9 °F 30.03 in NNE 1.0 mph 4.0 mph 96% 0.01 in -RA
22:20 35.8 °F 34.5 °F 30.02 in NE 1.0 mph 4.0 mph 95% 0.00 in -RA
22:30 35.7 °F 34.4 °F 30.01 in NW 1.0 mph 7.0 mph 95% 0.00 in -RA
22:40 35.7 °F 34.4 °F 30.01 in North 1.0 mph 4.0 mph 95% 0.00 in -RA
22:50 35.7 °F 34.6 °F 30.01 in Calm   6.0 mph 96% 0.00 in -RA
23:00 35.6 °F 34.6 °F 30.01 in Calm   3.0 mph 96% 0.01 in -RA
23:10 35.7 °F 34.7 °F 30.01 in Calm   3.0 mph 96% 0.00 in -RA
23:20 35.7 °F 34.7 °F 30.00 in Calm   3.0 mph 96% 0.00 in -RA
23:30 35.7 °F 34.7 °F 30.00 in Calm   3.0 mph 96% 0.00 in -RA
23:40 35.7 °F 34.7 °F 30.00 in Calm   5.0 mph 96% 0.01 in -RA
23:50 35.7 °F 34.7 °F 30.00 in Calm   2.0 mph 96% 0.01 in -RA
TarryTown NY Weather
Compliments of Weather Underground - 1.75 mb